createdAt,value
2018-10-19T00:01:32.950Z,85.30
2018-10-19T00:04:38.345Z,86.20
2018-10-19T00:07:43.695Z,85.20
2018-10-19T00:10:49.148Z,85.10
2018-10-19T00:13:54.837Z,85.50
2018-10-19T00:17:00.227Z,85.60
2018-10-19T00:20:07.098Z,85.60
2018-10-19T00:23:12.515Z,85.50
2018-10-19T00:26:18.417Z,85.40
2018-10-19T00:29:23.766Z,85.70
2018-10-19T00:32:29.114Z,85.60
2018-10-19T00:35:34.521Z,85.50
2018-10-19T00:38:39.983Z,85.50
2018-10-19T00:41:45.317Z,85.70
2018-10-19T00:44:50.658Z,85.50
2018-10-19T00:47:56.351Z,85.50
2018-10-19T00:51:01.748Z,85.50
2018-10-19T00:54:07.681Z,85.40
2018-10-19T00:57:13.090Z,85.50
2018-10-19T01:00:18.685Z,85.40
2018-10-19T01:03:24.100Z,85.40
2018-10-19T01:06:29.554Z,85.30
2018-10-19T01:09:34.903Z,85.20
2018-10-19T01:12:40.779Z,85.40
2018-10-19T01:15:46.130Z,85.40
2018-10-19T01:18:51.654Z,85.60
2018-10-19T01:21:57.149Z,85.50
2018-10-19T01:25:02.475Z,85.30
2018-10-19T01:28:08.005Z,86.40
2018-10-19T01:31:13.393Z,85.60
2018-10-19T01:34:18.783Z,85.80
2018-10-19T01:37:24.121Z,85.70
2018-10-19T01:40:29.517Z,85.80
2018-10-19T01:43:34.921Z,86.10
2018-10-19T01:46:44.345Z,86.30
2018-10-19T01:49:49.790Z,86.40
2018-10-19T01:52:55.203Z,86.20
2018-10-19T01:56:00.771Z,86.50
2018-10-19T01:59:06.720Z,87.00
2018-10-19T02:02:12.266Z,87.00
2018-10-19T02:05:18.530Z,87.00
2018-10-19T02:08:23.911Z,87.20
2018-10-19T02:11:29.269Z,87.70
2018-10-19T02:14:34.666Z,87.30
2018-10-19T02:17:40.014Z,87.00
2018-10-19T02:20:45.562Z,87.00
2018-10-19T02:23:51.294Z,86.90
2018-10-19T02:26:57.041Z,87.00
2018-10-19T02:30:02.679Z,87.20
2018-10-19T02:33:08.455Z,87.00
2018-10-19T02:36:14.126Z,86.60
2018-10-19T02:39:19.673Z,86.80
2018-10-19T02:42:25.197Z,86.80
2018-10-19T02:45:34.202Z,86.80
2018-10-19T02:48:39.632Z,86.60
2018-10-19T02:51:44.978Z,87.00
2018-10-19T02:54:50.486Z,87.30
2018-10-19T02:57:55.815Z,87.40
2018-10-19T03:01:01.565Z,87.30
2018-10-19T03:04:06.934Z,87.40
2018-10-19T03:07:12.298Z,87.20
2018-10-19T03:10:18.346Z,87.00
2018-10-19T03:13:23.831Z,87.00
2018-10-19T03:16:29.182Z,87.10
2018-10-19T03:19:34.726Z,87.10
2018-10-19T03:22:40.072Z,87.50
2018-10-19T03:25:45.409Z,87.30
2018-10-19T03:28:50.847Z,87.50
2018-10-19T03:31:56.201Z,87.50
2018-10-19T03:35:01.590Z,87.60
2018-10-19T03:38:07.497Z,87.60
2018-10-19T03:41:12.954Z,88.00
2018-10-19T03:44:18.498Z,87.80
2018-10-19T03:47:23.881Z,87.40
2018-10-19T03:50:29.762Z,87.80
2018-10-19T03:53:35.655Z,87.80
2018-10-19T03:56:41.047Z,87.80
2018-10-19T03:59:46.410Z,88.30
2018-10-19T04:02:51.817Z,88.10
2018-10-19T04:05:57.373Z,89.10
2018-10-19T04:09:03.328Z,89.50
2018-10-19T04:12:08.917Z,89.60
2018-10-19T04:15:14.364Z,89.10
2018-10-19T04:18:19.925Z,88.90
2018-10-19T04:21:25.386Z,88.90
2018-10-19T04:24:30.762Z,89.00
2018-10-19T04:27:36.845Z,88.90
2018-10-19T04:30:42.457Z,89.10
2018-10-19T04:33:47.835Z,88.80
2018-10-19T04:37:04.973Z,88.90
2018-10-19T04:40:21.711Z,88.70
2018-10-19T04:43:27.129Z,89.10
2018-10-19T04:46:32.467Z,89.40
2018-10-19T04:49:37.923Z,89.30
2018-10-19T04:52:43.330Z,89.00
2018-10-19T04:55:48.790Z,88.70
2018-10-19T04:58:54.281Z,88.50
2018-10-19T05:02:00.707Z,88.70
2018-10-19T05:05:07.322Z,88.50
2018-10-19T05:08:12.847Z,88.60
2018-10-19T05:11:18.563Z,89.10
2018-10-19T05:14:23.992Z,89.60
2018-10-19T05:17:30.042Z,89.60
2018-10-19T05:20:35.507Z,90.10
2018-10-19T05:23:40.958Z,90.00
2018-10-19T05:26:46.371Z,90.20
2018-10-19T05:29:52.861Z,90.20
2018-10-19T05:32:58.219Z,90.30
2018-10-19T05:36:04.390Z,90.20
2018-10-19T05:39:10.405Z,90.20
2018-10-19T05:42:15.807Z,90.30
2018-10-19T05:45:21.206Z,90.10
2018-10-19T05:48:26.561Z,90.00
2018-10-19T05:51:31.939Z,89.60
2018-10-19T05:54:37.372Z,90.00
2018-10-19T05:57:42.837Z,90.00
2018-10-19T06:00:48.326Z,90.00
2018-10-19T06:03:53.782Z,90.00
2018-10-19T06:06:59.185Z,89.80
2018-10-19T06:10:05.090Z,89.80
2018-10-19T06:13:10.498Z,89.50
2018-10-19T06:16:15.874Z,90.00
2018-10-19T06:19:21.378Z,89.60
2018-10-19T06:22:26.819Z,89.50
2018-10-19T06:25:32.185Z,89.80
2018-10-19T06:28:37.669Z,90.00
2018-10-19T06:31:43.052Z,90.00
2018-10-19T06:34:48.414Z,90.10
2018-10-19T06:37:53.929Z,90.00
2018-10-19T06:40:59.559Z,90.00
2018-10-19T06:44:05.618Z,90.00
2018-10-19T06:47:22.692Z,90.00
2018-10-19T06:50:28.274Z,90.00
2018-10-19T06:53:34.125Z,90.10
2018-10-19T06:56:39.494Z,89.90
2018-10-19T06:59:44.933Z,90.00
2018-10-19T07:02:50.310Z,89.80
2018-10-19T07:05:55.693Z,90.10
2018-10-19T07:09:01.210Z,90.40
2018-10-19T07:12:07.783Z,90.20
2018-10-19T07:15:13.323Z,90.10
2018-10-19T07:18:18.798Z,90.10
2018-10-19T07:21:24.263Z,89.80
2018-10-19T07:24:29.930Z,89.60
2018-10-19T07:27:35.480Z,89.70
2018-10-19T07:30:40.890Z,89.70
2018-10-19T07:33:46.973Z,88.70
2018-10-19T07:36:52.337Z,88.70
2018-10-19T07:39:57.714Z,88.50
2018-10-19T07:43:03.099Z,88.90
2018-10-19T07:46:08.445Z,88.30
2018-10-19T07:49:14.155Z,88.60
2018-10-19T07:52:19.514Z,88.40
2018-10-19T07:55:24.941Z,88.50
2018-10-19T07:58:30.389Z,88.00
2018-10-19T08:01:35.749Z,87.70
2018-10-19T08:04:41.142Z,88.30
2018-10-19T08:07:46.970Z,87.90
2018-10-19T08:10:52.805Z,87.70
2018-10-19T08:13:58.881Z,88.60
2018-10-19T08:17:04.362Z,88.00
2018-10-19T08:20:10.734Z,88.30
2018-10-19T08:23:16.397Z,87.50
2018-10-19T08:26:24.165Z,86.60
2018-10-19T08:29:29.574Z,86.60
2018-10-19T08:32:34.911Z,86.40
2018-10-19T08:35:40.282Z,85.70
2018-10-19T08:38:45.651Z,86.40
2018-10-19T08:41:51.060Z,85.90
2018-10-19T08:44:56.638Z,86.90
2018-10-19T08:48:02.199Z,85.60
2018-10-19T08:51:07.593Z,85.10
2018-10-19T08:54:14.166Z,84.80
2018-10-19T08:57:19.609Z,83.90
2018-10-19T09:00:25.118Z,83.80
2018-10-19T09:03:30.520Z,83.60
2018-10-19T09:06:36.259Z,82.90
2018-10-19T09:09:42.343Z,82.50
2018-10-19T09:12:47.904Z,81.90
2018-10-19T09:15:54.906Z,81.90
2018-10-19T09:19:00.390Z,81.90
2018-10-19T09:22:06.486Z,82.10
2018-10-19T09:25:11.899Z,81.80
2018-10-19T09:28:17.269Z,80.70
2018-10-19T09:31:22.648Z,80.40
2018-10-19T09:34:27.999Z,79.80
2018-10-19T09:37:33.362Z,79.40
2018-10-19T09:40:38.748Z,78.90
2018-10-19T09:43:44.131Z,78.40
2018-10-19T09:46:49.562Z,78.40
2018-10-19T09:49:54.898Z,77.80
2018-10-19T09:53:00.284Z,77.20
2018-10-19T09:56:06.320Z,76.70
2018-10-19T09:59:12.023Z,76.20
2018-10-19T10:02:17.502Z,75.30
2018-10-19T10:05:22.918Z,74.10
2018-10-19T10:08:28.342Z,74.50
2018-10-19T10:11:35.834Z,73.30
2018-10-19T10:14:41.279Z,72.30
2018-10-19T10:17:46.822Z,71.90
2018-10-19T10:20:52.193Z,71.90
2018-10-19T10:23:57.839Z,69.70
2018-10-19T10:27:04.029Z,69.70
2018-10-19T10:30:10.922Z,70.00
2018-10-19T10:33:16.808Z,67.20
2018-10-19T10:36:22.778Z,66.80
2018-10-19T10:39:33.659Z,67.00
2018-10-19T10:42:40.732Z,66.60
2018-10-19T10:45:46.274Z,65.40
2018-10-19T10:48:51.878Z,64.90
2018-10-19T10:51:57.256Z,65.40
2018-10-19T10:55:03.637Z,65.10
2018-10-19T10:58:09.247Z,65.00
2018-10-19T11:01:16.152Z,65.90
2018-10-19T11:04:21.702Z,66.00
2018-10-19T11:07:27.852Z,64.10
2018-10-19T11:10:33.461Z,62.40
2018-10-19T11:13:40.190Z,63.10
2018-10-19T11:16:45.565Z,62.10
2018-10-19T11:19:50.933Z,61.40
2018-10-19T11:22:56.530Z,62.10
2018-10-19T11:26:01.902Z,61.90
2018-10-19T11:29:07.582Z,62.20
2018-10-19T11:32:12.949Z,62.70
2018-10-19T11:35:19.031Z,63.20
2018-10-19T11:38:24.602Z,62.90
2018-10-19T11:41:30.030Z,63.50
2018-10-19T11:44:35.390Z,63.30
2018-10-19T11:47:40.769Z,63.00
2018-10-19T11:50:46.177Z,59.60
2018-10-19T11:53:51.572Z,57.70
2018-10-19T11:56:57.005Z,56.60
2018-10-19T12:00:02.552Z,55.90
2018-10-19T12:03:08.022Z,52.70
2018-10-19T12:06:13.519Z,50.00
2018-10-19T12:09:18.889Z,47.40
2018-10-19T12:12:24.314Z,44.50
2018-10-19T12:15:29.683Z,44.00
2018-10-19T12:18:35.117Z,43.80
2018-10-19T12:21:40.557Z,41.40
2018-10-19T12:24:45.934Z,38.80
2018-10-19T12:27:51.353Z,40.30
2018-10-19T12:30:56.832Z,40.60
2018-10-19T12:34:02.454Z,41.70
2018-10-19T12:37:11.029Z,39.40
2018-10-19T12:40:16.606Z,38.70
2018-10-19T12:43:22.244Z,38.10
2018-10-19T12:46:45.869Z,37.30
2018-10-19T12:49:51.308Z,37.40
2018-10-19T12:52:56.690Z,38.10
2018-10-19T12:56:02.201Z,39.40
2018-10-19T12:59:08.273Z,38.40
2018-10-19T13:02:14.745Z,38.60
2018-10-19T13:05:20.130Z,38.80
2018-10-19T13:08:25.633Z,40.40
2018-10-19T13:11:31.038Z,41.30
2018-10-19T13:14:36.929Z,42.00
2018-10-19T13:17:42.330Z,42.00
2018-10-19T13:20:47.728Z,39.30
2018-10-19T13:23:53.156Z,39.30
2018-10-19T13:27:11.220Z,38.20
2018-10-19T13:30:16.963Z,35.60
2018-10-19T13:33:22.389Z,36.00
2018-10-19T13:36:27.780Z,37.90
2018-10-19T13:39:33.161Z,37.20
2018-10-19T13:42:38.514Z,34.70
2018-10-19T13:45:43.860Z,35.10
2018-10-19T13:48:49.409Z,35.00
2018-10-19T13:51:54.822Z,36.10
2018-10-19T13:55:00.833Z,36.30
2018-10-19T13:58:06.458Z,37.40
2018-10-19T14:01:16.073Z,39.40
2018-10-19T14:04:21.485Z,41.80
2018-10-19T14:07:26.849Z,42.90
2018-10-19T14:10:32.345Z,43.30
2018-10-19T14:13:37.754Z,44.30
2018-10-19T14:16:43.146Z,44.70
2018-10-19T14:19:49.154Z,44.10
2018-10-19T14:22:54.567Z,44.00
2018-10-19T14:25:59.956Z,44.90
2018-10-19T14:29:05.781Z,45.80
2018-10-19T14:32:11.361Z,46.30
2018-10-19T14:35:16.829Z,47.50
2018-10-19T14:38:22.345Z,47.90
2018-10-19T14:41:27.728Z,48.80
2018-10-19T14:44:34.559Z,50.20
2018-10-19T14:47:41.274Z,50.40
2018-10-19T14:50:47.461Z,50.60
2018-10-19T14:53:52.887Z,51.30
2018-10-19T14:56:58.318Z,51.30
2018-10-19T15:00:04.558Z,50.80
2018-10-19T15:03:09.977Z,50.20
2018-10-19T15:06:15.531Z,50.30
2018-10-19T15:09:21.035Z,50.90
2018-10-19T15:12:26.551Z,52.50
2018-10-19T15:15:32.478Z,53.20
2018-10-19T15:18:37.932Z,53.20
2018-10-19T15:21:43.457Z,53.10
2018-10-19T15:24:48.858Z,53.20
2018-10-19T15:27:54.745Z,52.70
2018-10-19T15:31:00.193Z,53.60
2018-10-19T15:34:06.102Z,54.20
2018-10-19T15:37:11.501Z,54.20
2018-10-19T15:40:16.921Z,54.10
2018-10-19T15:43:22.282Z,53.40
2018-10-19T15:46:27.689Z,54.60
2018-10-19T15:49:33.449Z,55.40
2018-10-19T15:52:38.825Z,55.50
2018-10-19T15:55:44.218Z,55.20
2018-10-19T15:58:49.771Z,56.10
2018-10-19T16:01:55.970Z,56.60
2018-10-19T16:05:01.357Z,57.00
2018-10-19T16:08:07.925Z,58.20
2018-10-19T16:11:13.490Z,59.70
2018-10-19T16:14:19.018Z,58.50
2018-10-19T16:17:24.452Z,58.80
2018-10-19T16:20:30.080Z,59.70
2018-10-19T16:23:35.820Z,59.40
2018-10-19T16:26:41.210Z,60.60
2018-10-19T16:29:46.593Z,62.00
2018-10-19T16:32:51.977Z,62.00
2018-10-19T16:35:57.834Z,62.20
2018-10-19T16:39:03.321Z,62.40
2018-10-19T16:42:09.612Z,62.80
2018-10-19T16:45:15.335Z,62.80
2018-10-19T16:48:20.882Z,62.10
2018-10-19T16:51:31.418Z,62.90
2018-10-19T16:54:36.802Z,63.30
2018-10-19T16:57:42.313Z,63.50
2018-10-19T17:00:47.733Z,63.90
2018-10-19T17:03:53.320Z,64.60
2018-10-19T17:06:59.081Z,65.20
2018-10-19T17:10:04.774Z,66.50
2018-10-19T17:13:10.158Z,66.70
2018-10-19T17:16:15.573Z,66.30
2018-10-19T17:19:21.004Z,66.60
2018-10-19T17:22:26.558Z,66.90
2018-10-19T17:25:32.042Z,68.10
2018-10-19T17:28:37.566Z,69.00
2018-10-19T17:31:43.011Z,68.80
2018-10-19T17:34:48.375Z,68.90
2018-10-19T17:37:53.777Z,69.70
2018-10-19T17:40:59.185Z,69.40
2018-10-19T17:44:04.558Z,69.40
2018-10-19T17:47:10.789Z,69.70
2018-10-19T17:50:16.421Z,70.10
2018-10-19T17:53:21.837Z,70.10
2018-10-19T17:56:27.266Z,70.50
2018-10-19T17:59:32.658Z,71.20
2018-10-19T18:02:38.064Z,71.40
2018-10-19T18:05:55.137Z,71.60
2018-10-19T18:09:00.829Z,71.80
2018-10-19T18:12:06.695Z,72.00
2018-10-19T18:15:12.262Z,72.00
2018-10-19T18:18:17.690Z,72.80
2018-10-19T18:21:23.101Z,73.50
2018-10-19T18:24:28.686Z,73.40
2018-10-19T18:27:34.226Z,73.40
2018-10-19T18:30:39.705Z,73.70
2018-10-19T18:33:45.591Z,74.20
2018-10-19T18:36:51.111Z,74.50
2018-10-19T18:39:56.562Z,74.50
2018-10-19T18:43:01.949Z,74.80
2018-10-19T18:46:07.655Z,76.10
2018-10-19T18:49:13.212Z,75.80
2018-10-19T18:52:18.674Z,75.70
2018-10-19T18:55:24.058Z,76.00
2018-10-19T18:58:29.574Z,76.00
2018-10-19T19:01:34.986Z,76.30
2018-10-19T19:04:40.661Z,76.90
2018-10-19T19:07:46.073Z,77.00
2018-10-19T19:10:51.462Z,77.40
2018-10-19T19:13:56.969Z,77.80
2018-10-19T19:17:02.557Z,78.10
2018-10-19T19:20:16.537Z,78.60
2018-10-19T19:23:22.142Z,78.70
2018-10-19T19:26:28.545Z,78.80
2018-10-19T19:29:34.002Z,79.50
2018-10-19T19:32:43.474Z,79.40
2018-10-19T19:35:48.837Z,79.20
2018-10-19T19:38:54.301Z,79.20
2018-10-19T19:42:05.059Z,78.70
2018-10-19T19:45:10.721Z,79.40
2018-10-19T19:48:21.214Z,80.00
2018-10-19T19:51:26.602Z,80.20
2018-10-19T19:54:31.966Z,80.40
2018-10-19T19:57:37.309Z,80.20
2018-10-19T20:00:43.129Z,80.10
2018-10-19T20:03:48.489Z,80.10
2018-10-19T20:06:53.814Z,80.50
2018-10-19T20:09:59.233Z,81.80
2018-10-19T20:13:04.782Z,82.00
2018-10-19T20:16:10.108Z,82.10
2018-10-19T20:19:15.599Z,82.00
2018-10-19T20:22:21.646Z,82.00
2018-10-19T20:25:27.037Z,81.90
2018-10-19T20:28:32.434Z,82.60
2018-10-19T20:31:37.770Z,81.40
2018-10-19T20:34:43.134Z,81.50
2018-10-19T20:37:48.492Z,81.70
2018-10-19T20:40:54.015Z,81.40
2018-10-19T20:43:59.672Z,81.40
2018-10-19T20:47:05.563Z,81.40
2018-10-19T20:50:11.323Z,81.60
2018-10-19T20:53:16.907Z,81.60
2018-10-19T20:56:22.470Z,82.20
2018-10-19T20:59:27.873Z,82.20
2018-10-19T21:02:33.267Z,82.20
2018-10-19T21:05:38.842Z,82.30
2018-10-19T21:08:44.329Z,82.30
2018-10-19T21:11:49.673Z,82.30
2018-10-19T21:14:55.650Z,82.20
2018-10-19T21:18:01.017Z,82.10
2018-10-19T21:21:06.934Z,82.20
2018-10-19T21:24:13.181Z,82.20
2018-10-19T21:27:18.593Z,82.30
2018-10-19T21:30:24.018Z,82.40
2018-10-19T21:33:29.414Z,82.70
2018-10-19T21:36:34.787Z,82.90
2018-10-19T21:39:40.266Z,83.50
2018-10-19T21:42:45.633Z,83.50
2018-10-19T21:45:51.346Z,83.30
2018-10-19T21:48:56.797Z,83.40
2018-10-19T21:52:02.266Z,83.20
2018-10-19T21:55:09.686Z,82.90
2018-10-19T21:58:15.075Z,82.90
2018-10-19T22:01:20.483Z,82.70
2018-10-19T22:04:25.980Z,82.90
2018-10-19T22:07:31.475Z,83.10
2018-10-19T22:10:37.106Z,82.80
2018-10-19T22:13:42.937Z,83.30
2018-10-19T22:16:48.349Z,83.10
2018-10-19T22:19:53.860Z,83.10
2018-10-19T22:22:59.293Z,83.00
2018-10-19T22:26:04.899Z,82.50
2018-10-19T22:29:10.588Z,82.70
2018-10-19T22:32:16.094Z,82.80
2018-10-19T22:35:21.495Z,83.10
2018-10-19T22:38:26.893Z,83.20
2018-10-19T22:41:32.254Z,83.10
2018-10-19T22:44:37.593Z,83.10
2018-10-19T22:47:43.033Z,83.00
2018-10-19T22:50:48.422Z,82.70
2018-10-19T22:53:53.766Z,82.50
2018-10-19T22:56:59.141Z,83.30
2018-10-19T23:00:04.594Z,83.80
2018-10-19T23:03:09.931Z,83.60
2018-10-19T23:06:15.275Z,84.30
2018-10-19T23:09:20.658Z,84.30
2018-10-19T23:12:26.024Z,84.20
2018-10-19T23:15:31.383Z,84.10
2018-10-19T23:18:36.802Z,84.00
2018-10-19T23:21:42.267Z,83.90
2018-10-19T23:24:47.741Z,83.90
2018-10-19T23:27:53.085Z,83.80
2018-10-19T23:30:58.812Z,83.60
2018-10-19T23:34:04.402Z,83.60
2018-10-19T23:37:09.865Z,83.80
2018-10-19T23:40:15.461Z,83.80
2018-10-19T23:43:20.876Z,84.00
2018-10-19T23:46:26.258Z,84.40
2018-10-19T23:49:31.722Z,84.50
2018-10-19T23:52:37.103Z,84.80
2018-10-19T23:55:42.542Z,84.90
2018-10-19T23:58:48.150Z,84.80
